createdAt,value
2019-03-21T00:01:23.987Z,22.60
2019-03-21T00:03:58.567Z,17.70
2019-03-21T00:06:31.682Z,22.98
2019-03-21T00:09:06.014Z,16.35
2019-03-21T00:12:02.443Z,19.15
2019-03-21T00:14:39.650Z,25.48
2019-03-21T00:17:12.181Z,24.18
2019-03-21T00:19:42.911Z,24.05
2019-03-21T00:22:13.682Z,16.73
2019-03-21T00:24:44.409Z,21.77
2019-03-21T00:27:15.248Z,17.42
2019-03-21T00:29:45.996Z,15.98
2019-03-21T00:32:16.853Z,19.50
2019-03-21T00:34:47.943Z,22.87
2019-03-21T00:37:18.607Z,16.85
2019-03-21T00:39:49.389Z,18.55
2019-03-21T00:42:20.119Z,20.35
2019-03-21T00:44:50.933Z,15.40
2019-03-21T00:47:21.762Z,16.30
2019-03-21T00:49:52.509Z,15.23
2019-03-21T00:52:26.797Z,16.85
2019-03-21T00:54:57.469Z,17.05
2019-03-21T00:57:28.119Z,18.12
2019-03-21T00:59:58.813Z,17.23
2019-03-21T01:02:29.533Z,20.25
2019-03-21T01:05:00.380Z,19.70
2019-03-21T01:07:31.240Z,21.65
2019-03-21T01:10:01.815Z,24.57
2019-03-21T01:12:32.579Z,23.20
2019-03-21T01:15:03.218Z,22.70
2019-03-21T01:17:34.401Z,25.20
2019-03-21T01:20:07.521Z,22.85
2019-03-21T01:22:38.113Z,29.42
2019-03-21T01:25:11.093Z,20.17
2019-03-21T01:27:41.774Z,21.82
2019-03-21T01:30:13.919Z,25.65
2019-03-21T01:32:44.536Z,23.83
2019-03-21T01:35:16.416Z,31.57
2019-03-21T01:37:47.061Z,26.80
2019-03-21T01:40:20.604Z,26.20
2019-03-21T01:42:51.443Z,28.83
2019-03-21T01:45:25.133Z,19.32
2019-03-21T01:47:56.183Z,23.38
2019-03-21T01:50:27.153Z,24.02
2019-03-21T01:52:57.851Z,27.50
2019-03-21T01:55:28.485Z,24.92
2019-03-21T01:57:59.270Z,26.50
2019-03-21T02:00:33.610Z,22.48
2019-03-21T02:03:04.371Z,25.70
2019-03-21T02:05:35.183Z,24.10
2019-03-21T02:08:05.949Z,21.57
2019-03-21T02:10:36.840Z,30.10
2019-03-21T02:13:07.643Z,30.00
2019-03-21T02:15:38.437Z,26.80
2019-03-21T02:18:09.270Z,26.35
2019-03-21T02:20:39.989Z,24.30
2019-03-21T02:23:11.114Z,17.92
2019-03-21T02:25:41.673Z,23.50
2019-03-21T02:28:12.501Z,21.93
2019-03-21T02:30:43.185Z,24.70
2019-03-21T02:33:23.323Z,24.05
2019-03-21T02:35:53.964Z,29.02
2019-03-21T02:38:24.762Z,31.05
2019-03-21T02:40:55.702Z,27.00
2019-03-21T02:43:26.392Z,26.00
2019-03-21T02:45:57.206Z,22.58
2019-03-21T02:48:27.921Z,23.50
2019-03-21T02:50:58.433Z,24.77
2019-03-21T02:53:29.182Z,24.55
2019-03-21T02:55:59.840Z,26.00
2019-03-21T02:58:30.656Z,20.45
2019-03-21T03:01:01.394Z,24.45
2019-03-21T03:03:32.073Z,25.90
2019-03-21T03:06:02.733Z,28.20
2019-03-21T03:08:33.427Z,26.65
2019-03-21T03:11:05.170Z,27.62
2019-03-21T03:13:35.964Z,30.43
2019-03-21T03:16:06.659Z,22.62
2019-03-21T03:18:39.521Z,25.08
2019-03-21T03:21:10.101Z,30.27
2019-03-21T03:23:40.681Z,22.22
2019-03-21T03:26:11.403Z,28.40
2019-03-21T03:28:44.612Z,28.25
2019-03-21T03:31:16.592Z,27.65
2019-03-21T03:33:47.307Z,21.82
2019-03-21T03:36:17.996Z,26.75
2019-03-21T03:38:48.670Z,22.50
2019-03-21T03:41:19.443Z,25.32
2019-03-21T03:43:50.241Z,24.05
2019-03-21T03:46:20.981Z,26.68
2019-03-21T03:48:51.703Z,25.27
2019-03-21T03:51:22.393Z,26.40
2019-03-21T03:53:53.098Z,24.85
2019-03-21T03:56:23.971Z,24.80
2019-03-21T03:58:55.012Z,26.90
2019-03-21T04:01:26.771Z,24.05
2019-03-21T04:03:57.661Z,24.20
2019-03-21T04:06:30.177Z,26.05
2019-03-21T04:09:00.892Z,25.40
2019-03-21T04:11:31.759Z,26.37
2019-03-21T04:14:02.551Z,30.32
2019-03-21T04:16:33.335Z,21.30
2019-03-21T04:19:04.143Z,23.50
2019-03-21T04:21:35.076Z,24.27
2019-03-21T04:24:06.882Z,23.25
2019-03-21T04:26:39.312Z,22.27
2019-03-21T04:29:10.041Z,22.95
2019-03-21T04:31:40.753Z,27.85
2019-03-21T04:34:11.571Z,30.55
2019-03-21T04:36:42.299Z,22.07
2019-03-21T04:39:13.771Z,23.55
2019-03-21T04:41:44.907Z,26.37
2019-03-21T04:44:15.707Z,23.80
2019-03-21T04:46:48.866Z,21.55
2019-03-21T04:49:19.479Z,18.77
2019-03-21T04:51:51.605Z,26.17
2019-03-21T04:54:22.243Z,24.95
2019-03-21T04:56:52.960Z,30.90
2019-03-21T04:59:23.777Z,29.77
2019-03-21T05:01:54.387Z,27.98
2019-03-21T05:04:24.999Z,30.10
2019-03-21T05:06:55.662Z,23.95
2019-03-21T05:09:26.511Z,25.95
2019-03-21T05:11:57.253Z,27.07
2019-03-21T05:14:29.187Z,30.48
2019-03-21T05:16:59.801Z,26.52
2019-03-21T05:19:30.535Z,28.27
2019-03-21T05:22:01.171Z,22.27
2019-03-21T05:24:33.241Z,25.02
2019-03-21T05:27:03.803Z,25.48
2019-03-21T05:29:36.247Z,27.42
2019-03-21T05:32:06.876Z,26.55
2019-03-21T05:34:37.541Z,23.40
2019-03-21T05:37:08.415Z,24.85
2019-03-21T05:39:40.057Z,26.95
2019-03-21T05:42:15.311Z,32.42
2019-03-21T05:44:45.954Z,22.37
2019-03-21T05:47:17.758Z,30.55
2019-03-21T05:49:50.322Z,25.35
2019-03-21T05:52:20.972Z,32.20
2019-03-21T05:54:51.615Z,27.25
2019-03-21T05:57:22.222Z,31.23
2019-03-21T05:59:53.011Z,28.10
2019-03-21T06:02:23.775Z,25.08
2019-03-21T06:04:54.503Z,35.15
2019-03-21T06:07:55.623Z,30.92
2019-03-21T06:10:28.895Z,26.52
2019-03-21T06:13:00.555Z,34.18
2019-03-21T06:15:32.390Z,36.50
2019-03-21T06:18:40.797Z,26.02
2019-03-21T06:21:26.892Z,35.15
2019-03-21T06:24:16.696Z,29.30
2019-03-21T06:27:14.109Z,28.17
2019-03-21T06:29:39.830Z,32.58
2019-03-21T06:32:12.877Z,38.63
2019-03-21T06:34:42.827Z,26.60
2019-03-21T06:37:13.503Z,28.92
2019-03-21T06:39:44.775Z,33.45
2019-03-21T06:42:15.759Z,31.52
2019-03-21T06:44:46.532Z,23.52
2019-03-21T06:47:17.604Z,28.12
2019-03-21T06:49:52.896Z,30.37
2019-03-21T06:52:27.095Z,31.85
2019-03-21T06:55:01.754Z,33.33
2019-03-21T06:57:32.426Z,27.80
2019-03-21T07:00:03.146Z,43.25
2019-03-21T07:02:35.735Z,23.73
2019-03-21T07:05:07.504Z,42.62
2019-03-21T07:07:38.559Z,29.92
2019-03-21T07:10:10.682Z,32.08
2019-03-21T07:12:41.755Z,39.40
2019-03-21T07:15:14.875Z,31.27
2019-03-21T07:17:53.067Z,30.80
2019-03-21T07:20:24.661Z,28.55
2019-03-21T07:22:58.064Z,25.15
2019-03-21T07:25:30.361Z,26.10
2019-03-21T07:28:03.410Z,26.35
2019-03-21T07:30:34.096Z,31.02
2019-03-21T07:33:11.664Z,27.37
2019-03-21T07:35:45.872Z,28.38
2019-03-21T07:38:16.562Z,28.02
2019-03-21T07:40:48.894Z,29.90
2019-03-21T07:43:22.097Z,31.80
2019-03-21T07:45:51.791Z,27.55
2019-03-21T07:48:23.020Z,28.95
2019-03-21T07:50:56.122Z,30.02
2019-03-21T07:53:29.086Z,37.10
2019-03-21T07:56:00.392Z,32.53
2019-03-21T07:58:31.132Z,25.02
2019-03-21T08:01:05.041Z,31.00
2019-03-21T08:03:36.038Z,27.32
2019-03-21T08:06:09.266Z,24.12
2019-03-21T08:08:39.644Z,30.23
2019-03-21T08:11:10.365Z,32.50
2019-03-21T08:13:41.021Z,28.50
2019-03-21T08:16:11.791Z,26.65
2019-03-21T08:18:42.522Z,24.85
2019-03-21T08:21:19.489Z,25.52
2019-03-21T08:24:34.435Z,30.80
2019-03-21T08:28:00.033Z,28.92
2019-03-21T08:29:56.083Z,22.13
2019-03-21T08:33:39.169Z,24.47
2019-03-21T08:38:19.174Z,28.87
2019-03-21T08:40:51.495Z,22.02
2019-03-21T08:43:23.273Z,25.17
2019-03-21T08:45:53.861Z,26.07
2019-03-21T08:48:27.920Z,18.70
2019-03-21T08:51:08.293Z,23.07
2019-03-21T08:56:22.660Z,24.30
2019-03-21T08:58:56.161Z,21.35
2019-03-21T09:01:27.423Z,18.45
2019-03-21T09:03:58.111Z,29.45
2019-03-21T09:06:28.658Z,22.85
2019-03-21T09:09:00.461Z,21.80
2019-03-21T09:11:37.166Z,40.60
2019-03-21T09:14:08.060Z,18.42
2019-03-21T09:16:42.056Z,19.82
2019-03-21T09:19:14.051Z,19.85
2019-03-21T09:21:44.648Z,20.77
2019-03-21T09:24:15.443Z,21.73
2019-03-21T09:26:46.182Z,18.27
2019-03-21T09:29:16.806Z,14.87
2019-03-21T09:31:47.493Z,12.58
2019-03-21T09:34:19.202Z,11.93
2019-03-21T09:36:50.878Z,13.13
2019-03-21T09:39:22.008Z,14.43
2019-03-21T09:41:52.788Z,19.42
2019-03-21T09:44:27.724Z,15.08
2019-03-21T09:46:58.322Z,15.75
2019-03-21T09:49:29.483Z,11.03
2019-03-21T09:51:59.993Z,8.60
2019-03-21T09:54:30.521Z,11.48
2019-03-21T09:57:01.147Z,14.38
2019-03-21T09:59:31.798Z,16.27
2019-03-21T10:02:02.907Z,14.35
2019-03-21T10:04:33.480Z,9.98
2019-03-21T10:07:04.054Z,10.32
2019-03-21T10:09:34.624Z,11.43
2019-03-21T10:12:05.495Z,9.05
2019-03-21T10:14:36.214Z,8.27
2019-03-21T10:17:06.768Z,10.40
2019-03-21T10:19:37.277Z,11.75
2019-03-21T10:22:08.061Z,9.98
2019-03-21T10:24:38.786Z,14.63
2019-03-21T10:27:09.338Z,14.13
2019-03-21T10:29:39.902Z,14.65
2019-03-21T10:32:14.458Z,10.65
2019-03-21T10:34:42.954Z,9.15
2019-03-21T10:37:13.632Z,10.30
2019-03-21T10:39:44.266Z,14.00
2019-03-21T10:42:14.802Z,17.02
2019-03-21T10:44:45.783Z,11.30
2019-03-21T10:47:16.598Z,11.15
2019-03-21T10:49:47.278Z,12.65
2019-03-21T10:52:17.873Z,15.18
2019-03-21T10:54:48.415Z,11.45
2019-03-21T10:57:18.971Z,15.18
2019-03-21T10:59:49.557Z,10.68
2019-03-21T11:02:29.317Z,10.72
2019-03-21T11:04:59.888Z,9.30
2019-03-21T11:07:30.393Z,11.18
2019-03-21T11:10:01.030Z,14.90
2019-03-21T11:12:32.733Z,9.28
2019-03-21T11:15:03.384Z,12.93
2019-03-21T11:17:35.090Z,9.55
2019-03-21T11:20:13.623Z,12.93
2019-03-21T11:22:44.438Z,9.58
2019-03-21T11:25:15.114Z,10.78
2019-03-21T11:27:45.768Z,13.48
2019-03-21T11:30:19.335Z,12.57
2019-03-21T11:32:50.060Z,18.70
2019-03-21T11:35:20.640Z,12.43
2019-03-21T11:37:51.402Z,13.68
2019-03-21T11:40:22.086Z,12.35
2019-03-21T11:42:54.327Z,19.62
2019-03-21T11:45:25.103Z,13.72
2019-03-21T11:47:55.865Z,14.70
2019-03-21T11:50:26.587Z,11.70
2019-03-21T11:52:57.274Z,13.45
2019-03-21T11:55:27.999Z,13.08
2019-03-21T11:57:58.662Z,11.57
2019-03-21T12:00:29.429Z,10.70
2019-03-21T12:03:00.255Z,10.65
2019-03-21T12:05:30.832Z,16.05
2019-03-21T12:08:01.483Z,18.40
2019-03-21T12:10:32.080Z,16.10
2019-03-21T12:13:02.806Z,11.85
2019-03-21T12:15:33.573Z,11.43
2019-03-21T12:18:04.376Z,16.07
2019-03-21T12:20:35.776Z,15.08
2019-03-21T12:23:06.594Z,16.00
2019-03-21T12:25:37.301Z,20.25
2019-03-21T12:28:07.994Z,12.65
2019-03-21T12:30:40.427Z,14.30
2019-03-21T12:33:11.271Z,14.47
2019-03-21T12:35:42.065Z,12.95
2019-03-21T12:38:13.967Z,11.18
2019-03-21T12:40:44.658Z,11.60
2019-03-21T12:43:15.442Z,11.18
2019-03-21T12:45:46.148Z,16.55
2019-03-21T12:48:16.802Z,15.85
2019-03-21T12:50:47.553Z,10.48
2019-03-21T12:53:18.141Z,15.10
2019-03-21T12:55:48.792Z,12.47
2019-03-21T12:58:19.385Z,7.53
2019-03-21T13:00:50.110Z,16.90
2019-03-21T13:03:20.734Z,15.20
2019-03-21T13:05:53.397Z,16.82
2019-03-21T13:08:33.278Z,15.32
2019-03-21T13:10:56.337Z,10.80
2019-03-21T13:13:26.961Z,12.25
2019-03-21T13:15:57.535Z,11.25
2019-03-21T13:18:28.181Z,7.90
2019-03-21T13:20:59.462Z,13.32
2019-03-21T13:23:30.488Z,12.60
2019-03-21T13:26:01.273Z,10.65
2019-03-21T13:28:31.860Z,12.47
2019-03-21T13:31:02.516Z,10.90
2019-03-21T13:33:35.198Z,13.45
2019-03-21T13:36:06.222Z,13.05
2019-03-21T13:38:37.003Z,13.48
2019-03-21T13:41:07.769Z,11.50
2019-03-21T13:43:39.496Z,12.90
2019-03-21T13:46:10.222Z,10.38
2019-03-21T13:48:40.782Z,8.60
2019-03-21T13:51:11.455Z,17.40
2019-03-21T13:53:42.134Z,13.58
2019-03-21T13:56:12.823Z,14.50
2019-03-21T13:58:46.557Z,12.53
2019-03-21T14:01:16.897Z,14.98
2019-03-21T14:03:47.447Z,9.78
2019-03-21T14:06:18.120Z,11.12
2019-03-21T14:08:48.684Z,12.37
2019-03-21T14:11:19.495Z,13.58
2019-03-21T14:13:51.286Z,15.25
2019-03-21T14:16:21.932Z,20.80
2019-03-21T14:18:53.003Z,14.13
2019-03-21T14:21:24.273Z,15.48
2019-03-21T14:23:54.981Z,14.98
2019-03-21T14:26:25.618Z,13.38
2019-03-21T14:28:56.347Z,8.68
2019-03-21T14:31:26.916Z,12.78
2019-03-21T14:33:57.440Z,17.50
2019-03-21T14:36:28.130Z,15.35
2019-03-21T14:38:58.743Z,17.00
2019-03-21T14:41:29.242Z,16.50
2019-03-21T14:44:00.041Z,12.45
2019-03-21T14:46:30.515Z,17.12
2019-03-21T14:49:01.186Z,11.20
2019-03-21T14:51:32.427Z,10.05
2019-03-21T14:54:03.030Z,21.70
2019-03-21T14:56:33.685Z,14.20
2019-03-21T14:59:04.481Z,15.83
2019-03-21T15:01:35.137Z,12.28
2019-03-21T15:04:17.260Z,14.28
2019-03-21T15:06:47.955Z,11.18
2019-03-21T15:09:18.459Z,15.90
2019-03-21T15:11:49.181Z,10.48
2019-03-21T15:14:19.813Z,13.95
2019-03-21T15:16:50.612Z,11.40
2019-03-21T15:19:21.151Z,18.45
2019-03-21T15:21:51.716Z,10.70
2019-03-21T15:24:22.307Z,26.25
2019-03-21T15:26:53.014Z,14.07
2019-03-21T15:29:35.686Z,10.40
2019-03-21T15:32:07.402Z,8.43
2019-03-21T15:34:37.956Z,15.28
2019-03-21T15:37:08.712Z,20.52
2019-03-21T15:39:39.349Z,11.78
2019-03-21T15:42:10.260Z,13.13
2019-03-21T15:44:40.971Z,13.22
2019-03-21T15:47:11.804Z,21.65
2019-03-21T15:49:42.494Z,26.45
2019-03-21T15:52:13.027Z,19.67
2019-03-21T15:54:45.301Z,26.68
2019-03-21T15:57:16.093Z,14.90
2019-03-21T15:59:46.687Z,13.45
2019-03-21T16:02:17.356Z,19.12
2019-03-21T16:04:48.815Z,23.32
2019-03-21T16:07:24.245Z,22.22
2019-03-21T16:10:17.749Z,12.23
2019-03-21T16:12:52.620Z,14.25
2019-03-21T16:15:57.112Z,17.12
2019-03-21T16:18:50.262Z,17.23
2019-03-21T16:21:39.721Z,20.82
2019-03-21T16:24:22.284Z,16.65
2019-03-21T16:27:07.754Z,15.18
2019-03-21T16:29:43.007Z,12.53
2019-03-21T16:32:13.595Z,15.83
2019-03-21T16:34:47.993Z,15.00
2019-03-21T16:37:31.014Z,13.90
2019-03-21T16:40:16.944Z,18.20
2019-03-21T16:42:48.951Z,19.07
2019-03-21T16:45:21.191Z,18.92
2019-03-21T16:47:52.035Z,17.15
2019-03-21T16:50:22.783Z,28.73
2019-03-21T16:52:54.459Z,25.57
2019-03-21T16:55:26.339Z,23.00
2019-03-21T16:57:57.046Z,33.73
2019-03-21T17:00:30.801Z,32.88
2019-03-21T17:03:01.681Z,41.48
2019-03-21T17:05:33.079Z,37.35
2019-03-21T17:08:11.319Z,34.58
2019-03-21T17:10:36.166Z,18.45
2019-03-21T17:13:07.516Z,21.65
2019-03-21T17:15:38.529Z,16.70
2019-03-21T17:18:09.379Z,12.95
2019-03-21T17:20:39.932Z,17.87
2019-03-21T17:23:13.809Z,11.60
2019-03-21T17:25:46.056Z,21.37
2019-03-21T17:28:16.857Z,15.78
2019-03-21T17:30:48.103Z,13.55
2019-03-21T17:33:24.037Z,21.12
2019-03-21T17:36:01.801Z,20.30
2019-03-21T17:38:35.319Z,25.37
2019-03-21T17:41:06.109Z,14.93
2019-03-21T17:43:38.892Z,18.60
2019-03-21T17:46:09.511Z,19.82
2019-03-21T17:48:40.337Z,19.90
2019-03-21T17:51:10.910Z,16.40
2019-03-21T17:53:41.628Z,19.02
2019-03-21T17:56:12.497Z,28.85
2019-03-21T17:58:43.237Z,21.68
2019-03-21T18:01:14.106Z,29.48
2019-03-21T18:03:45.128Z,23.30
2019-03-21T18:06:15.785Z,26.20
2019-03-21T18:08:46.648Z,17.70
2019-03-21T18:11:17.480Z,26.30
2019-03-21T18:13:48.113Z,18.75
2019-03-21T18:16:18.852Z,14.93
2019-03-21T18:18:49.417Z,24.43
2019-03-21T18:21:20.011Z,29.20
2019-03-21T18:23:50.764Z,18.95
2019-03-21T18:26:21.590Z,17.25
2019-03-21T18:28:52.234Z,19.90
2019-03-21T18:31:22.928Z,20.80
2019-03-21T18:33:53.650Z,24.57
2019-03-21T18:36:24.327Z,21.85
2019-03-21T18:38:59.525Z,23.00
2019-03-21T18:41:27.525Z,24.45
2019-03-21T18:43:58.207Z,20.77
2019-03-21T18:46:28.898Z,17.32
2019-03-21T18:48:59.856Z,19.10
2019-03-21T18:51:30.788Z,19.65
2019-03-21T18:54:01.414Z,22.27
2019-03-21T18:56:32.199Z,22.10
2019-03-21T18:59:08.222Z,19.02
2019-03-21T19:01:39.480Z,31.52
2019-03-21T19:04:11.196Z,24.18
2019-03-21T19:06:41.902Z,28.87
2019-03-21T19:09:12.573Z,28.87
2019-03-21T19:11:43.676Z,28.07
2019-03-21T19:14:14.506Z,26.10
2019-03-21T19:16:46.418Z,26.62
2019-03-21T19:19:18.997Z,24.27
2019-03-21T19:21:49.797Z,22.42
2019-03-21T19:24:20.555Z,25.20
2019-03-21T19:26:51.928Z,27.85
2019-03-21T19:29:25.124Z,28.35
2019-03-21T19:31:56.583Z,24.90
2019-03-21T19:34:27.864Z,24.85
2019-03-21T19:37:00.861Z,24.57
2019-03-21T19:39:32.110Z,27.15
2019-03-21T19:42:06.014Z,28.83
2019-03-21T19:44:38.247Z,28.15
2019-03-21T19:47:10.587Z,28.75
2019-03-21T19:49:57.684Z,30.55
2019-03-21T19:52:38.480Z,23.52
2019-03-21T19:55:29.711Z,29.27
2019-03-21T19:57:57.690Z,27.98
2019-03-21T20:00:34.354Z,29.45
2019-03-21T20:03:07.876Z,28.77
2019-03-21T20:05:45.029Z,31.82
2019-03-21T20:08:22.692Z,45.43
2019-03-21T20:11:08.937Z,31.23
2019-03-21T20:13:48.404Z,35.48
2019-03-21T20:16:28.051Z,40.95
2019-03-21T20:19:02.982Z,33.50
2019-03-21T20:21:47.867Z,32.48
2019-03-21T20:24:23.122Z,43.15
2019-03-21T20:27:00.360Z,42.60
2019-03-21T20:29:38.187Z,39.27
2019-03-21T20:32:29.786Z,32.33
2019-03-21T20:35:14.152Z,39.60
2019-03-21T20:40:45.495Z,37.53
2019-03-21T20:43:23.923Z,36.08
2019-03-21T20:46:27.098Z,38.65
2019-03-21T20:49:02.244Z,37.58
2019-03-21T20:52:15.804Z,42.35
2019-03-21T20:55:00.524Z,39.67
2019-03-21T20:57:58.797Z,39.53
2019-03-21T21:00:48.133Z,39.88
2019-03-21T21:03:31.907Z,49.60
2019-03-21T21:06:30.707Z,39.48
2019-03-21T21:09:49.677Z,39.05
2019-03-21T21:12:52.457Z,41.28
2019-03-21T21:15:56.146Z,38.95
2019-03-21T21:18:26.790Z,35.63
2019-03-21T21:20:57.513Z,38.90
2019-03-21T21:23:28.505Z,38.13
2019-03-21T21:26:05.390Z,38.15
2019-03-21T21:28:31.527Z,43.58
2019-03-21T21:31:02.406Z,35.70
2019-03-21T21:33:33.123Z,37.93
2019-03-21T21:36:03.852Z,36.88
2019-03-21T21:38:34.478Z,34.90
2019-03-21T21:41:05.143Z,39.83
2019-03-21T21:43:35.849Z,37.88
2019-03-21T21:46:09.008Z,38.25
2019-03-21T21:48:39.712Z,35.75
2019-03-21T21:51:10.492Z,34.27
2019-03-21T21:53:41.179Z,37.33
2019-03-21T21:56:17.665Z,33.23
2019-03-21T21:58:45.436Z,36.93
2019-03-21T22:01:16.425Z,37.58
2019-03-21T22:03:47.146Z,39.65
2019-03-21T22:06:17.852Z,40.80
2019-03-21T22:08:48.545Z,35.55
2019-03-21T22:11:19.207Z,40.10
2019-03-21T22:13:49.987Z,37.67
2019-03-21T22:16:20.789Z,37.98
2019-03-21T22:18:51.348Z,34.85
2019-03-21T22:21:22.054Z,39.23
2019-03-21T22:23:52.793Z,35.05
2019-03-21T22:26:29.544Z,35.03
2019-03-21T22:28:55.654Z,37.63
2019-03-21T22:31:27.942Z,35.58
2019-03-21T22:33:58.446Z,35.52
2019-03-21T22:36:29.065Z,38.30
2019-03-21T22:38:59.625Z,34.20
2019-03-21T22:41:30.276Z,33.80
2019-03-21T22:44:00.832Z,35.48
2019-03-21T22:46:31.438Z,34.00
2019-03-21T22:49:01.949Z,38.53
2019-03-21T22:51:32.482Z,36.35
2019-03-21T22:54:03.049Z,31.95
2019-03-21T22:56:41.172Z,41.02
2019-03-21T22:59:06.097Z,35.68
2019-03-21T23:01:37.305Z,36.90
2019-03-21T23:04:08.158Z,30.85
2019-03-21T23:06:39.985Z,35.20
2019-03-21T23:09:10.665Z,32.73
2019-03-21T23:11:41.295Z,34.50
2019-03-21T23:14:11.946Z,32.83
2019-03-21T23:16:42.866Z,37.23
2019-03-21T23:19:13.405Z,33.33
2019-03-21T23:21:46.046Z,34.50
2019-03-21T23:24:16.528Z,34.18
2019-03-21T23:26:52.901Z,35.20
2019-03-21T23:29:19.566Z,30.62
2019-03-21T23:31:50.226Z,30.97
2019-03-21T23:34:20.974Z,37.38
2019-03-21T23:40:09.925Z,31.77
2019-03-21T23:42:40.478Z,36.48
2019-03-21T23:45:11.666Z,33.63
2019-03-21T23:47:42.589Z,34.00
2019-03-21T23:50:14.049Z,36.60
2019-03-21T23:52:45.207Z,36.85
2019-03-21T23:55:16.115Z,33.28
2019-03-21T23:57:46.698Z,33.25
